createdAt,value
2019-04-05T00:02:17.464Z,16.93
2019-04-05T00:04:43.849Z,16.73
2019-04-05T00:07:10.159Z,16.93
2019-04-05T00:09:36.586Z,16.90
2019-04-05T00:12:03.127Z,16.43
2019-04-05T00:14:29.479Z,16.93
2019-04-05T00:16:55.849Z,15.30
2019-04-05T00:19:22.228Z,15.30
2019-04-05T00:21:48.627Z,15.93
2019-04-05T00:24:14.997Z,17.37
2019-04-05T00:26:41.354Z,17.70
2019-04-05T00:29:08.766Z,15.57
2019-04-05T00:31:35.146Z,16.40
2019-04-05T00:34:01.495Z,15.90
2019-04-05T00:36:27.871Z,17.37
2019-04-05T00:38:54.284Z,16.40
2019-04-05T00:41:20.731Z,16.10
2019-04-05T00:43:47.123Z,17.17
2019-04-05T00:46:13.508Z,15.70
2019-04-05T00:48:40.106Z,16.33
2019-04-05T00:51:06.516Z,16.23
2019-04-05T00:53:32.899Z,17.97
2019-04-05T00:55:59.407Z,17.00
2019-04-05T00:58:26.403Z,16.07
2019-04-05T01:00:52.877Z,15.77
2019-04-05T01:03:19.239Z,17.40
2019-04-05T01:05:45.662Z,18.63
2019-04-05T01:08:12.036Z,18.17
2019-04-05T01:10:38.374Z,17.07
2019-04-05T01:13:04.736Z,17.77
2019-04-05T01:15:40.334Z,16.90
2019-04-05T01:17:59.351Z,16.70
2019-04-05T01:20:29.488Z,18.23
2019-04-05T01:22:56.581Z,17.43
2019-04-05T01:25:24.295Z,18.07
2019-04-05T01:27:50.879Z,18.07
2019-04-05T01:30:17.332Z,17.17
2019-04-05T01:32:44.357Z,16.83
2019-04-05T01:35:11.178Z,17.57
2019-04-05T01:37:38.195Z,17.07
2019-04-05T01:40:07.097Z,16.57
2019-04-05T01:42:34.906Z,18.33
2019-04-05T01:45:01.419Z,17.63
2019-04-05T01:47:28.886Z,17.97
2019-04-05T01:49:55.285Z,15.87
2019-04-05T01:52:21.770Z,16.80
2019-04-05T01:54:48.122Z,17.47
2019-04-05T01:57:14.515Z,17.47
2019-04-05T01:59:40.841Z,17.33
2019-04-05T02:02:07.495Z,16.67
2019-04-05T02:04:33.803Z,17.17
2019-04-05T02:07:00.271Z,18.43
2019-04-05T02:09:26.715Z,17.87
2019-04-05T02:11:53.111Z,17.83
2019-04-05T02:14:19.495Z,18.17
2019-04-05T02:16:46.008Z,17.67
2019-04-05T02:19:12.366Z,17.90
2019-04-05T02:21:38.703Z,18.27
2019-04-05T02:24:05.204Z,19.43
2019-04-05T02:26:31.779Z,18.23
2019-04-05T02:28:58.289Z,18.50
2019-04-05T02:31:24.875Z,18.37
2019-04-05T02:33:51.403Z,18.50
2019-04-05T02:36:17.885Z,18.90
2019-04-05T02:38:44.248Z,17.60
2019-04-05T02:41:11.577Z,17.97
2019-04-05T02:43:39.662Z,17.50
2019-04-05T02:46:22.105Z,18.83
2019-04-05T02:48:38.210Z,17.30
2019-04-05T02:51:06.506Z,17.17
2019-04-05T02:53:35.589Z,17.17
2019-04-05T02:56:03.171Z,18.70
2019-04-05T02:58:31.036Z,18.70
2019-04-05T03:00:57.668Z,16.60
2019-04-05T03:03:24.127Z,19.73
2019-04-05T03:05:51.123Z,19.73
2019-04-05T03:08:17.617Z,20.40
2019-04-05T03:10:54.390Z,20.47
2019-04-05T03:13:22.948Z,20.87
2019-04-05T03:15:50.000Z,21.27
2019-04-05T03:18:16.812Z,20.87
2019-04-05T03:20:43.127Z,21.60
2019-04-05T03:23:09.675Z,19.37
2019-04-05T03:25:36.408Z,19.60
2019-04-05T03:28:03.352Z,19.53
2019-04-05T03:30:29.810Z,19.57
2019-04-05T03:32:56.230Z,19.47
2019-04-05T03:35:23.205Z,18.60
2019-04-05T03:37:49.688Z,18.57
2019-04-05T03:40:16.260Z,18.17
2019-04-05T03:42:42.668Z,18.47
2019-04-05T03:45:09.228Z,18.20
2019-04-05T03:47:35.726Z,19.63
2019-04-05T03:50:05.013Z,21.77
2019-04-05T03:52:31.569Z,18.90
2019-04-05T03:54:57.952Z,20.17
2019-04-05T03:57:24.382Z,23.50
2019-04-05T03:59:51.509Z,19.83
2019-04-05T04:02:18.016Z,20.03
2019-04-05T04:04:44.547Z,20.70
2019-04-05T04:07:12.149Z,21.43
2019-04-05T04:09:38.571Z,19.53
2019-04-05T04:12:05.189Z,21.10
2019-04-05T04:14:31.713Z,20.13
2019-04-05T04:17:11.511Z,20.40
2019-04-05T04:19:27.118Z,21.10
2019-04-05T04:22:03.076Z,22.23
2019-04-05T04:24:30.787Z,21.20
2019-04-05T04:26:57.390Z,21.37
2019-04-05T04:29:24.025Z,22.40
2019-04-05T04:31:50.438Z,22.83
2019-04-05T04:34:16.903Z,23.63
2019-04-05T04:36:43.480Z,23.27
2019-04-05T04:39:10.093Z,22.27
2019-04-05T04:41:36.607Z,23.83
2019-04-05T04:44:03.759Z,24.60
2019-04-05T04:46:31.238Z,23.90
2019-04-05T04:48:57.965Z,27.53
2019-04-05T04:51:24.568Z,26.37
2019-04-05T04:53:51.204Z,27.03
2019-04-05T04:56:17.900Z,31.40
2019-04-05T04:58:46.298Z,25.90
2019-04-05T05:01:12.751Z,25.60
2019-04-05T05:03:39.228Z,27.13
2019-04-05T05:06:05.742Z,26.97
2019-04-05T05:08:32.183Z,25.10
2019-04-05T05:10:58.621Z,23.37
2019-04-05T05:13:25.086Z,21.17
2019-04-05T05:15:51.604Z,23.73
2019-04-05T05:18:18.267Z,23.37
2019-04-05T05:20:44.805Z,23.57
2019-04-05T05:23:11.467Z,23.80
2019-04-05T05:25:38.119Z,26.03
2019-04-05T05:28:04.691Z,24.47
2019-04-05T05:30:31.742Z,22.87
2019-04-05T05:32:58.212Z,20.70
2019-04-05T05:35:24.737Z,22.20
2019-04-05T05:37:51.448Z,23.77
2019-04-05T05:40:18.077Z,21.47
2019-04-05T05:42:44.472Z,23.00
2019-04-05T05:45:11.587Z,20.83
2019-04-05T05:47:50.659Z,20.77
2019-04-05T05:50:06.738Z,33.43
2019-04-05T05:52:33.278Z,49.37
2019-04-05T05:54:59.658Z,54.07
2019-04-05T05:57:26.420Z,31.50
2019-04-05T05:59:52.960Z,42.57
2019-04-05T06:02:19.367Z,63.27
2019-04-05T06:04:45.820Z,29.57
2019-04-05T06:07:12.215Z,24.70
2019-04-05T06:09:38.603Z,28.13
2019-04-05T06:12:05.013Z,44.67
2019-04-05T06:14:31.404Z,41.77
2019-04-05T06:16:57.839Z,19.83
2019-04-05T06:19:24.280Z,24.87
2019-04-05T06:21:50.716Z,17.10
2019-04-05T06:24:17.142Z,20.43
2019-04-05T06:26:43.628Z,21.83
2019-04-05T06:29:10.045Z,19.60
2019-04-05T06:31:36.577Z,21.90
2019-04-05T06:34:03.210Z,18.93
2019-04-05T06:36:29.669Z,19.17
2019-04-05T06:38:56.174Z,17.77
2019-04-05T06:41:22.608Z,22.80
2019-04-05T06:43:49.052Z,19.80
2019-04-05T06:46:15.485Z,17.33
2019-04-05T06:48:41.924Z,20.80
2019-04-05T06:51:08.356Z,18.37
2019-04-05T06:53:34.773Z,19.83
2019-04-05T06:56:01.235Z,19.07
2019-04-05T06:58:29.214Z,18.67
2019-04-05T07:00:57.679Z,19.00
2019-04-05T07:03:24.196Z,20.67
2019-04-05T07:05:50.662Z,19.20
2019-04-05T07:08:18.484Z,19.67
2019-04-05T07:10:45.377Z,19.53
2019-04-05T07:13:11.885Z,19.03
2019-04-05T07:15:38.281Z,18.23
2019-04-05T07:18:04.722Z,18.47
2019-04-05T07:20:31.154Z,19.47
2019-04-05T07:22:57.603Z,18.83
2019-04-05T07:25:23.985Z,18.43
2019-04-05T07:27:50.429Z,17.67
2019-04-05T07:30:17.070Z,17.20
2019-04-05T07:32:43.496Z,18.93
2019-04-05T07:35:09.992Z,19.13
2019-04-05T07:37:36.375Z,17.60
2019-04-05T07:40:04.767Z,18.53
2019-04-05T07:42:31.157Z,16.67
2019-04-05T07:44:57.600Z,18.43
2019-04-05T07:47:24.008Z,17.77
2019-04-05T07:49:50.432Z,17.87
2019-04-05T07:52:16.861Z,18.67
2019-04-05T07:54:43.333Z,18.47
2019-04-05T07:57:09.763Z,18.83
2019-04-05T07:59:37.252Z,21.03
2019-04-05T08:02:03.655Z,20.30
2019-04-05T08:04:30.204Z,19.13
2019-04-05T08:07:00.348Z,18.60
2019-04-05T08:09:27.655Z,19.33
2019-04-05T08:11:54.298Z,20.13
2019-04-05T08:14:21.172Z,19.93
2019-04-05T08:16:47.926Z,18.07
2019-04-05T08:19:14.373Z,18.83
2019-04-05T08:21:40.731Z,18.90
2019-04-05T08:24:07.144Z,19.23
2019-04-05T08:26:33.555Z,17.47
2019-04-05T08:29:00.042Z,20.07
2019-04-05T08:31:26.446Z,19.80
2019-04-05T08:33:52.907Z,19.70
2019-04-05T08:36:20.356Z,17.60
2019-04-05T08:38:46.893Z,17.30
2019-04-05T08:41:14.347Z,18.47
2019-04-05T08:43:40.791Z,17.70
2019-04-05T08:46:07.193Z,17.67
2019-04-05T08:48:33.668Z,18.57
2019-04-05T08:51:00.378Z,18.23
2019-04-05T08:53:26.948Z,19.13
2019-04-05T08:55:53.495Z,19.70
2019-04-05T08:58:32.637Z,21.57
2019-04-05T09:00:48.183Z,18.23
2019-04-05T09:03:14.568Z,17.60
2019-04-05T09:05:41.080Z,18.47
2019-04-05T09:08:07.560Z,17.07
2019-04-05T09:10:34.005Z,18.73
2019-04-05T09:13:00.522Z,17.37
2019-04-05T09:15:27.028Z,16.93
2019-04-05T09:17:53.410Z,17.27
2019-04-05T09:20:19.844Z,16.43
2019-04-05T09:22:46.242Z,17.97
2019-04-05T09:25:12.602Z,16.80
2019-04-05T09:27:39.040Z,16.40
2019-04-05T09:30:06.545Z,17.03
2019-04-05T09:32:36.471Z,17.00
2019-04-05T09:35:04.488Z,16.33
2019-04-05T09:37:30.892Z,17.30
2019-04-05T09:39:57.302Z,18.33
2019-04-05T09:42:23.733Z,16.47
2019-04-05T09:44:50.160Z,16.60
2019-04-05T09:47:16.579Z,16.47
2019-04-05T09:49:43.040Z,15.97
2019-04-05T09:52:09.567Z,17.00
2019-04-05T09:54:36.135Z,16.70
2019-04-05T09:57:02.537Z,16.50
2019-04-05T09:59:28.990Z,16.87
2019-04-05T10:01:55.501Z,17.10
2019-04-05T10:04:21.938Z,16.23
2019-04-05T10:06:48.397Z,16.50
2019-04-05T10:09:14.935Z,16.23
2019-04-05T10:11:41.367Z,17.00
2019-04-05T10:14:07.752Z,16.17
2019-04-05T10:16:34.115Z,17.30
2019-04-05T10:19:00.551Z,17.43
2019-04-05T10:21:26.920Z,17.10
2019-04-05T10:23:54.356Z,17.30
2019-04-05T10:26:20.853Z,15.37
2019-04-05T10:28:47.351Z,16.80
2019-04-05T10:31:13.751Z,16.10
2019-04-05T10:33:40.111Z,16.33
2019-04-05T10:36:06.536Z,15.37
2019-04-05T10:38:32.955Z,15.77
2019-04-05T10:40:59.658Z,16.00
2019-04-05T10:43:26.206Z,16.03
2019-04-05T10:45:52.787Z,17.67
2019-04-05T10:48:19.229Z,15.80
2019-04-05T10:50:45.671Z,16.10
2019-04-05T10:53:12.178Z,15.43
2019-04-05T10:55:39.090Z,15.17
2019-04-05T10:58:05.598Z,15.40
2019-04-05T11:00:32.182Z,15.17
2019-04-05T11:02:58.650Z,14.30
2019-04-05T11:05:25.175Z,14.70
2019-04-05T11:07:51.622Z,16.57
2019-04-05T11:10:18.180Z,16.33
2019-04-05T11:12:44.586Z,13.77
2019-04-05T11:15:14.991Z,14.17
2019-04-05T11:17:42.391Z,14.23
2019-04-05T11:20:20.699Z,13.50
2019-04-05T11:22:38.031Z,13.53
2019-04-05T11:25:06.172Z,13.98
2019-04-05T11:27:32.540Z,14.78
2019-04-05T11:29:58.971Z,15.60
2019-04-05T11:32:25.386Z,15.93
2019-04-05T11:34:51.839Z,14.80
2019-04-05T11:37:19.070Z,15.40
2019-04-05T11:39:48.617Z,15.07
2019-04-05T11:42:17.532Z,16.00
2019-04-05T11:44:45.336Z,14.37
2019-04-05T11:47:11.762Z,15.83
2019-04-05T11:49:38.674Z,16.03
2019-04-05T11:52:05.106Z,16.20
2019-04-05T11:54:31.652Z,16.07
2019-04-05T11:56:58.114Z,15.30
2019-04-05T11:59:24.502Z,14.63
2019-04-05T12:02:08.261Z,30.90
2019-04-05T12:04:34.719Z,15.00
2019-04-05T12:07:01.107Z,14.60
2019-04-05T12:09:27.591Z,15.30
2019-04-05T12:11:54.043Z,15.37
2019-04-05T12:14:29.971Z,15.20
2019-04-05T12:16:48.694Z,15.23
2019-04-05T12:19:15.180Z,15.07
2019-04-05T12:21:41.662Z,15.20
2019-04-05T12:24:08.132Z,14.80
2019-04-05T12:26:35.183Z,15.53
2019-04-05T12:29:01.805Z,15.35
2019-04-05T12:31:28.271Z,15.80
2019-04-05T12:33:54.736Z,14.85
2019-04-05T12:36:22.283Z,14.98
2019-04-05T12:38:49.100Z,14.85
2019-04-05T12:41:18.125Z,13.03
2019-04-05T12:43:44.544Z,12.40
2019-04-05T12:46:14.971Z,15.10
2019-04-05T12:48:39.423Z,14.55
2019-04-05T12:51:06.004Z,13.10
2019-04-05T12:53:32.378Z,13.50
2019-04-05T12:55:58.796Z,14.47
2019-04-05T12:58:26.004Z,13.78
2019-04-05T13:00:53.720Z,14.20
2019-04-05T13:06:15.954Z,11.45
2019-04-05T13:08:42.432Z,12.28
2019-04-05T13:11:08.811Z,12.50
2019-04-05T13:13:35.200Z,13.45
2019-04-05T13:16:01.562Z,12.78
2019-04-05T13:18:30.548Z,13.80
2019-04-05T13:20:56.117Z,13.10
2019-04-05T13:23:22.570Z,14.70
2019-04-05T13:25:48.943Z,12.53
2019-04-05T13:28:18.624Z,13.20
2019-04-05T13:30:43.521Z,12.33
2019-04-05T13:33:09.970Z,12.28
2019-04-05T13:35:36.357Z,12.18
2019-04-05T13:38:02.753Z,11.50
2019-04-05T13:40:29.595Z,20.75
2019-04-05T13:42:56.394Z,12.78
2019-04-05T13:45:22.824Z,12.58
2019-04-05T13:47:49.190Z,13.75
2019-04-05T13:50:15.895Z,11.63
2019-04-05T13:52:42.418Z,11.35
2019-04-05T13:55:11.345Z,11.48
2019-04-05T13:57:40.127Z,11.43
2019-04-05T14:00:07.409Z,12.47
2019-04-05T14:02:41.903Z,11.35
2019-04-05T14:05:09.375Z,11.83
2019-04-05T14:07:35.912Z,11.55
2019-04-05T14:10:05.361Z,12.88
2019-04-05T14:12:31.790Z,11.73
2019-04-05T14:14:58.202Z,11.63
2019-04-05T14:17:24.759Z,12.40
2019-04-05T14:19:51.152Z,12.30
2019-04-05T14:22:22.213Z,11.78
2019-04-05T14:24:46.881Z,15.23
2019-04-05T14:27:13.279Z,12.95
2019-04-05T14:29:39.686Z,13.10
2019-04-05T14:32:20.354Z,13.65
2019-04-05T14:34:54.803Z,12.98
2019-04-05T14:37:24.840Z,13.00
2019-04-05T14:39:49.708Z,11.90
2019-04-05T14:42:16.167Z,13.80
2019-04-05T14:44:42.709Z,12.50
2019-04-05T14:47:10.215Z,11.70
2019-04-05T14:49:36.613Z,12.17
2019-04-05T14:52:03.223Z,11.23
2019-04-05T14:54:30.417Z,10.23
2019-04-05T14:56:57.615Z,10.70
2019-04-05T14:59:25.030Z,15.70
2019-04-05T15:01:51.471Z,10.67
2019-04-05T15:04:17.844Z,10.10
2019-04-05T15:06:44.215Z,11.40
2019-04-05T15:09:10.607Z,10.47
2019-04-05T15:11:36.975Z,12.03
2019-04-05T15:14:03.473Z,11.10
2019-04-05T15:16:29.887Z,9.23
2019-04-05T15:18:57.398Z,10.70
2019-04-05T15:21:23.886Z,11.93
2019-04-05T15:23:50.314Z,11.63
2019-04-05T15:26:20.417Z,11.33
2019-04-05T15:28:44.898Z,13.87
2019-04-05T15:31:11.334Z,13.43
2019-04-05T15:33:37.682Z,13.37
2019-04-05T15:36:04.044Z,13.10
2019-04-05T15:38:49.640Z,13.27
2019-04-05T15:41:16.025Z,14.40
2019-04-05T15:43:42.439Z,14.98
2019-04-05T15:46:08.827Z,35.13
2019-04-05T15:48:35.213Z,13.47
2019-04-05T15:51:01.580Z,23.13
2019-04-05T15:53:31.888Z,15.13
2019-04-05T15:55:56.204Z,15.30
2019-04-05T15:58:22.604Z,14.33
2019-04-05T16:00:49.027Z,16.13
2019-04-05T16:03:15.336Z,16.33
2019-04-05T16:05:42.929Z,14.23
2019-04-05T16:08:09.360Z,13.53
2019-04-05T16:10:36.073Z,14.97
2019-04-05T16:13:03.679Z,16.27
2019-04-05T16:15:30.041Z,15.80
2019-04-05T16:17:56.494Z,15.33
2019-04-05T16:20:22.867Z,14.70
2019-04-05T16:22:49.289Z,14.93
2019-04-05T16:25:15.765Z,15.77
2019-04-05T16:27:42.266Z,16.13
2019-04-05T16:30:09.054Z,15.97
2019-04-05T16:32:35.596Z,17.80
2019-04-05T16:35:03.071Z,14.77
2019-04-05T16:37:29.458Z,14.90
2019-04-05T16:39:55.823Z,13.70
2019-04-05T16:42:22.236Z,12.67
2019-04-05T16:44:48.627Z,15.80
2019-04-05T16:47:14.966Z,15.50
2019-04-05T16:49:41.379Z,14.60
2019-04-05T16:52:07.717Z,19.87
2019-04-05T16:54:34.158Z,20.30
2019-04-05T16:57:00.541Z,17.37
2019-04-05T16:59:26.941Z,15.90
2019-04-05T17:01:53.512Z,16.40
2019-04-05T17:04:21.576Z,16.33
2019-04-05T17:06:48.014Z,16.90
2019-04-05T17:09:14.519Z,18.30
2019-04-05T17:11:40.901Z,19.33
2019-04-05T17:14:07.407Z,21.47
2019-04-05T17:16:33.876Z,18.40
2019-04-05T17:19:00.383Z,19.60
2019-04-05T17:21:26.833Z,17.93
2019-04-05T17:23:53.268Z,21.57
2019-04-05T17:26:20.787Z,20.20
2019-04-05T17:28:47.175Z,19.93
2019-04-05T17:31:13.659Z,20.73
2019-04-05T17:33:40.154Z,21.17
2019-04-05T17:36:06.569Z,29.67
2019-04-05T17:38:32.942Z,30.00
2019-04-05T17:40:59.321Z,29.60
2019-04-05T17:43:25.694Z,23.10
2019-04-05T17:45:52.082Z,24.63
2019-04-05T17:48:18.523Z,25.87
2019-04-05T17:50:45.083Z,24.57
2019-04-05T17:53:13.206Z,26.27
2019-04-05T17:55:40.120Z,24.30
2019-04-05T17:58:06.655Z,27.63
2019-04-05T18:00:33.164Z,26.77
2019-04-05T18:02:59.531Z,23.83
2019-04-05T18:05:25.984Z,24.67
2019-04-05T18:07:52.499Z,27.30
2019-04-05T18:10:19.139Z,24.17
2019-04-05T18:12:45.586Z,28.63
2019-04-05T18:15:12.067Z,26.63
2019-04-05T18:17:38.530Z,23.40
2019-04-05T18:20:06.304Z,23.13
2019-04-05T18:22:32.882Z,22.83
2019-04-05T18:24:59.309Z,22.43
2019-04-05T18:27:25.646Z,21.77
2019-04-05T18:29:52.090Z,21.77
2019-04-05T18:32:18.502Z,22.67
2019-04-05T18:34:44.994Z,23.27
2019-04-05T18:37:11.513Z,23.10
2019-04-05T18:39:38.108Z,22.70
2019-04-05T18:42:04.486Z,22.00
2019-04-05T18:44:30.989Z,21.07
2019-04-05T18:46:57.557Z,20.93
2019-04-05T18:49:24.034Z,19.37
2019-04-05T18:51:51.657Z,19.80
2019-04-05T18:54:18.072Z,19.50
2019-04-05T18:56:44.563Z,19.70
2019-04-05T18:59:10.981Z,19.03
2019-04-05T19:01:37.407Z,21.33
2019-04-05T19:04:05.550Z,20.17
2019-04-05T19:06:32.164Z,21.37
2019-04-05T19:08:58.569Z,21.77
2019-04-05T19:11:25.057Z,18.80
2019-04-05T19:14:00.898Z,20.00
2019-04-05T19:16:19.805Z,23.97
2019-04-05T19:18:46.266Z,57.00
2019-04-05T19:21:12.666Z,64.67
2019-04-05T19:23:50.183Z,111.63
2019-04-05T19:26:07.305Z,29.43
2019-04-05T19:28:33.804Z,25.73
2019-04-05T19:50:47.197Z,62.20
2019-04-05T19:53:13.557Z,73.00
2019-04-05T19:55:39.983Z,54.73
2019-04-05T19:58:06.362Z,36.77
2019-04-05T20:00:32.839Z,26.23
2019-04-05T20:02:59.171Z,45.80
2019-04-05T20:05:26.637Z,38.87
2019-04-05T20:07:53.997Z,54.97
2019-04-05T20:10:20.492Z,36.70
2019-04-05T20:12:46.859Z,76.47
2019-04-05T20:15:13.393Z,29.87
2019-04-05T20:17:39.765Z,65.37
2019-04-05T20:20:06.397Z,98.27
2019-04-05T20:22:32.748Z,65.10
2019-04-05T20:24:59.180Z,45.70
2019-04-05T20:27:25.681Z,80.87
2019-04-05T20:29:52.090Z,27.43
2019-04-05T20:32:18.432Z,53.87
2019-04-05T20:34:44.902Z,90.67
2019-04-05T20:37:12.364Z,48.40
2019-04-05T20:39:38.787Z,58.63
2019-04-05T20:42:05.170Z,45.83
2019-04-05T20:44:31.587Z,75.73
2019-04-05T20:46:58.020Z,77.17
2019-04-05T20:49:24.406Z,42.37
2019-04-05T20:51:50.844Z,35.80
2019-04-05T20:54:24.468Z,39.23
2019-04-05T20:56:45.490Z,132.17
2019-04-05T20:59:11.871Z,49.77
2019-04-05T21:01:38.288Z,40.93
2019-04-05T21:04:04.676Z,53.20
2019-04-05T21:06:31.310Z,30.33
2019-04-05T21:08:57.709Z,25.50
2019-04-05T21:11:24.134Z,30.40
2019-04-05T21:13:50.566Z,32.53
2019-04-05T21:16:17.142Z,30.80
2019-04-05T21:18:43.486Z,26.97
2019-04-05T21:21:09.905Z,20.97
2019-04-05T21:23:37.366Z,25.43
2019-04-05T21:26:03.802Z,29.03
2019-04-05T21:28:30.219Z,20.40
2019-04-05T21:30:56.690Z,18.10
2019-04-05T21:33:23.140Z,17.17
2019-04-05T21:35:49.520Z,16.07
2019-04-05T21:38:15.933Z,16.20
2019-04-05T21:40:42.323Z,15.10
2019-04-05T21:43:08.743Z,17.67
2019-04-05T21:45:35.149Z,16.57
2019-04-05T21:48:01.534Z,18.30
2019-04-05T21:50:27.943Z,16.50
2019-04-05T21:52:54.318Z,16.10
2019-04-05T21:55:21.904Z,17.70
2019-04-05T21:57:48.605Z,16.43
2019-04-05T22:00:21.834Z,17.27
2019-04-05T22:02:49.876Z,15.03
2019-04-05T22:05:16.284Z,16.10
2019-04-05T22:07:42.700Z,16.80
2019-04-05T22:10:09.199Z,18.20
2019-04-05T22:12:35.555Z,15.93
2019-04-05T22:15:02.172Z,15.90
2019-04-05T22:17:28.564Z,16.50
2019-04-05T22:19:54.937Z,15.33
2019-04-05T22:22:21.315Z,15.70
2019-04-05T22:24:58.515Z,16.47
2019-04-05T22:27:15.881Z,16.13
2019-04-05T22:29:42.268Z,17.00
2019-04-05T22:32:08.639Z,16.17
2019-04-05T22:34:35.089Z,16.20
2019-04-05T22:37:01.487Z,16.90
2019-04-05T22:39:27.896Z,16.23
2019-04-05T22:41:54.312Z,16.77
2019-04-05T22:44:20.755Z,17.50
2019-04-05T22:46:47.347Z,17.03
2019-04-05T22:49:13.772Z,17.47
2019-04-05T22:51:40.193Z,16.20
2019-04-05T22:54:06.601Z,17.10
2019-04-05T22:56:32.988Z,17.23
2019-04-05T22:58:59.409Z,16.20
2019-04-05T23:01:25.781Z,16.00
2019-04-05T23:03:52.194Z,17.80
2019-04-05T23:06:18.655Z,17.70
2019-04-05T23:08:44.993Z,19.30
2019-04-05T23:11:11.425Z,20.97
2019-04-05T23:13:37.826Z,24.23
2019-04-05T23:16:04.206Z,24.20
2019-04-05T23:18:30.628Z,21.97
2019-04-05T23:20:56.966Z,21.07
2019-04-05T23:23:23.385Z,20.90
2019-04-05T23:25:49.724Z,21.77
2019-04-05T23:28:16.175Z,20.53
2019-04-05T23:30:42.568Z,22.30
2019-04-05T23:33:09.045Z,21.07
2019-04-05T23:35:35.442Z,20.07
2019-04-05T23:38:01.842Z,20.50
2019-04-05T23:40:28.234Z,19.27
2019-04-05T23:42:54.687Z,21.47
2019-04-05T23:45:21.067Z,18.33
2019-04-05T23:47:47.496Z,18.50
2019-04-05T23:50:13.857Z,19.13
2019-04-05T23:52:40.263Z,19.57
2019-04-05T23:55:06.727Z,20.00
2019-04-05T23:57:33.128Z,20.43
2019-04-05T23:59:59.567Z,20.47
